Time;durP1;ratioP1;P1;durP2;ratioP2;P2;SDS_P1;SDS_P2;PMS_P1;PMS_P2;Temp;Humidity;BMP_temperature;BMP_pressure;BME280_temperature;BME280_humidity;BME280_pressure;Samples;Min_cycle;Max_cycle;Signal;HPM_P1;HPM_P2
2022/06/11 00:00:10;;;;;;;8.98;8.07;;;;;;;17.22;88.12;94357.50;5077383;28;20193;-69
2022/06/11 00:02:37;;;;;;;8.13;7.43;;;;;;;17.19;88.14;94353.53;5076677;28;20216;-69
2022/06/11 00:05:05;;;;;;;8.50;7.80;;;;;;;17.22;88.28;94346.34;5076887;28;20252;-70
2022/06/11 00:07:32;;;;;;;7.97;7.35;;;;;;;17.23;88.30;94345.13;5077464;28;20189;-70
2022/06/11 00:09:59;;;;;;;8.18;7.55;;;;;;;17.25;88.39;94348.31;5077868;28;20188;-70
2022/06/11 00:12:27;;;;;;;7.50;6.90;;;;;;;17.25;88.36;94346.31;5076934;28;20203;-70
2022/06/11 00:14:55;;;;;;;7.97;7.28;;;;;;;17.25;87.90;94353.88;5078073;28;20254;-70
2022/06/11 00:17:24;;;;;;;8.13;7.43;;;;;;;17.24;87.84;94355.84;5077200;28;20208;-70
2022/06/11 00:19:50;;;;;;;7.90;7.20;;;;;;;17.26;87.71;94349.88;5076997;28;20197;-70
2022/06/11 00:22:18;;;;;;;7.93;7.15;;;;;;;17.27;87.55;94351.47;5077910;28;20208;-70
2022/06/11 00:24:45;;;;;;;8.98;7.80;;;;;;;17.25;86.83;94349.09;5076656;28;20341;-70
2022/06/11 00:27:13;;;;;;;15.98;13.48;;;;;;;17.24;86.93;94349.50;5076892;28;20534;-70
2022/06/11 00:29:42;;;;;;;14.00;12.60;;;;;;;17.26;86.77;94345.09;5076798;28;20200;-70
2022/06/11 00:32:12;;;;;;;10.00;9.10;;;;;;;17.28;86.17;94345.50;5077887;28;20177;-70
2022/06/11 00:34:40;;;;;;;9.15;8.25;;;;;;;17.27;86.21;94351.47;5076916;28;20189;-70
2022/06/11 00:37:08;;;;;;;8.75;8.05;;;;;;;17.26;86.15;94350.69;5077621;28;20189;-70
2022/06/11 00:39:36;;;;;;;7.63;7.03;;;;;;;17.24;85.75;94352.28;5076773;28;20197;-70
2022/06/11 00:42:07;;;;;;;7.93;7.13;;;;;;;17.22;85.40;94347.13;5075233;28;20605;-70
2022/06/11 00:44:34;;;;;;;8.00;7.30;;;;;;;17.22;85.48;94351.94;5077436;28;20200;-70
2022/06/11 00:47:04;;;;;;;7.45;6.85;;;;;;;17.19;85.36;94350.75;5076503;28;20204;-70
2022/06/11 00:49:40;;;;;;;7.95;7.25;;;;;;;17.18;86.03;94357.53;5077058;28;20189;-70
2022/06/11 00:52:21;;;;;;;7.95;7.28;;;;;;;17.14;86.58;94354.00;5076423;28;20254;-70
2022/06/11 00:54:50;;;;;;;8.45;7.65;;;;;;;17.14;86.37;94348.41;5077018;28;20620;-70
2022/06/11 00:57:17;;;;;;;7.90;7.15;;;;;;;17.14;86.65;94347.59;5076924;28;20661;-70
2022/06/11 00:59:48;;;;;;;8.13;7.43;;;;;;;17.15;86.92;94349.22;5076794;28;20199;-69
2022/06/11 01:02:15;;;;;;;7.97;7.28;;;;;;;17.14;87.23;94342.84;5076870;28;20193;-69
2022/06/11 01:04:48;;;;;;;8.30;7.60;;;;;;;17.14;87.00;94342.84;5077052;28;20196;-70
2022/06/11 01:07:35;;;;;;;13.07;11.88;;;;;;;17.14;86.94;94348.41;5076093;28;20597;-70
2022/06/11 01:10:32;;;;;;;16.30;14.80;;;;;;;17.13;87.39;94352.38;5063062;28;20204;-71
2022/06/11 01:13:06;;;;;;;17.20;15.52;;;;;;;17.16;87.58;94350.78;5033204;28;20213;-70
2022/06/11 01:15:37;;;;;;;14.55;13.18;;;;;;;17.16;87.58;94351.56;5076980;28;20209;-70
2022/06/11 01:18:22;;;;;;;13.35;12.05;;;;;;;17.16;87.75;94343.22;5076897;28;20185;-69
2022/06/11 01:20:56;;;;;;;11.18;10.27;;;;;;;17.18;87.39;94340.03;5075845;28;20189;-70
2022/06/11 01:24:10;;;;;;;10.18;9.38;;;;;;;17.14;87.65;94345.63;5075666;28;20229;-70
2022/06/11 01:26:57;;;;;;;10.50;9.60;;;;;;;17.16;88.02;94346.00;5076695;28;20208;-70
2022/06/11 01:29:38;;;;;;;9.52;8.73;;;;;;;17.14;87.92;94350.38;5076269;28;20220;-70
2022/06/11 01:32:10;;;;;;;9.02;8.23;;;;;;;17.13;88.07;94351.59;5075674;28;20204;-70
2022/06/11 01:34:42;;;;;;;10.82;8.35;;;;;;;17.12;87.95;94355.59;5076502;28;20197;-70
2022/06/11 01:37:12;;;;;;;9.00;8.20;;;;;;;17.12;88.00;94356.38;5075531;28;20197;-70
2022/06/11 01:39:44;;;;;;;8.00;7.30;;;;;;;17.11;87.96;94352.03;5076053;28;20204;-71
2022/06/11 01:42:18;;;;;;;7.90;7.20;;;;;;;17.11;87.72;94354.03;5076458;28;20197;-71
2022/06/11 01:44:46;;;;;;;8.88;8.07;;;;;;;17.09;87.79;94354.41;5076295;28;20189;-71
2022/06/11 01:47:14;;;;;;;7.75;7.15;;;;;;;17.08;88.00;94355.63;5075348;28;20200;-71
2022/06/11 01:49:45;;;;;;;9.30;8.48;;;;;;;17.05;87.74;94348.88;5075891;28;20626;-71
2022/06/11 01:52:28;;;;;;;8.48;7.78;;;;;;;17.04;87.99;94347.31;5075818;28;20186;-71
2022/06/11 01:54:59;;;;;;;8.80;8.00;;;;;;;17.05;88.04;94343.31;5075120;28;20197;-71
2022/06/11 01:57:38;;;;;;;9.27;8.48;;;;;;;17.03;88.15;94348.53;5075853;28;20197;-70
2022/06/11 02:00:11;;;;;;;8.02;7.43;;;;;;;17.04;88.42;94358.44;5075432;28;20201;-70
2022/06/11 02:02:53;;;;;;;8.95;8.15;;;;;;;17.04;88.67;94360.44;5075185;28;20189;-70
2022/06/11 02:05:26;;;;;;;8.77;7.97;;;;;;;17.02;88.67;94360.06;5075785;28;20201;-71
2022/06/11 02:08:03;;;;;;;9.10;8.30;;;;;;;17.02;88.40;94357.25;5075284;28;20193;-71
2022/06/11 02:10:34;;;;;;;8.90;8.15;;;;;;;17.02;88.38;94354.47;5075807;28;20185;-71
2022/06/11 02:13:04;;;;;;;8.63;7.90;;;;;;;17.02;88.34;94355.28;5075867;28;20212;-71
2022/06/11 02:15:35;;;;;;;9.63;8.77;;;;;;;17.02;88.10;94348.91;5075627;28;20177;-70
2022/06/11 02:18:07;;;;;;;9.48;8.68;;;;;;;17.01;88.18;94350.13;5075643;28;20204;-71
2022/06/11 02:20:38;;;;;;;9.40;8.57;;;;;;;17.00;88.25;94354.13;5074856;28;20197;-71
2022/06/11 02:23:08;;;;;;;9.35;8.45;;;;;;;16.99;88.34;94350.53;5075510;28;20189;-71
2022/06/11 02:25:38;;;;;;;9.32;8.52;;;;;;;16.99;88.57;94358.09;5075515;28;20215;-71
2022/06/11 02:28:08;;;;;;;9.90;9.00;;;;;;;16.97;88.80;94352.94;5074837;28;20205;-71
2022/06/11 02:30:36;;;;;;;9.07;8.27;;;;;;;16.98;88.81;94362.88;5075389;28;20524;-71
2022/06/11 02:33:04;;;;;;;9.60;8.77;;;;;;;16.99;88.89;94369.22;5075459;28;20185;-71
2022/06/11 02:35:37;;;;;;;9.70;8.82;;;;;;;16.99;88.64;94360.88;5075485;28;20190;-71
2022/06/11 02:38:05;;;;;;;10.32;9.38;;;;;;;17.00;88.84;94366.03;5075476;28;20189;-71
2022/06/11 02:40:36;;;;;;;9.93;9.13;;;;;;;17.01;89.03;94362.06;5074607;28;20588;-71
2022/06/11 02:43:03;;;;;;;9.63;8.82;;;;;;;16.99;89.03;94367.25;5074356;28;20197;-71
2022/06/11 02:45:30;;;;;;;10.48;9.48;;;;;;;16.99;89.20;94363.66;5074083;28;20221;-71
2022/06/11 02:47:58;;;;;;;9.65;8.85;;;;;;;16.99;89.14;94358.09;5075312;28;20182;-71
2022/06/11 02:50:28;;;;;;;9.82;8.93;;;;;;;17.00;89.08;94354.91;5075338;28;20192;-71
2022/06/11 02:52:55;;;;;;;10.07;9.27;;;;;;;17.00;89.04;94359.69;5074042;28;20208;-71
2022/06/11 02:55:23;;;;;;;9.05;8.30;;;;;;;17.00;89.17;94362.47;5074006;28;20204;-71
2022/06/11 02:57:49;;;;;;;9.50;8.63;;;;;;;16.98;89.12;94365.66;5074433;28;20201;-71
2022/06/11 03:00:19;;;;;;;9.30;8.50;;;;;;;16.98;89.04;94364.88;5074318;28;20200;-71
2022/06/11 03:02:48;;;;;;;8.60;7.70;;;;;;;16.99;88.64;94372.00;5075257;28;20189;-71
2022/06/11 03:05:20;;;;;;;8.77;7.97;;;;;;;17.00;88.60;94368.84;5072930;28;20185;-71
2022/06/11 03:07:47;;;;;;;8.02;7.32;;;;;;;16.99;88.31;94374.81;5074277;28;20197;-71
2022/06/11 03:10:15;;;;;;;7.72;7.03;;;;;;;16.98;87.85;94374.00;5074239;28;20193;-71
2022/06/11 03:12:42;;;;;;;8.10;7.38;;;;;;;16.96;88.25;94368.06;5074161;28;20189;-70
2022/06/11 03:15:10;;;;;;;8.00;7.30;;;;;;;16.97;88.11;94374.44;5075042;28;20189;-71
2022/06/11 03:17:37;;;;;;;7.35;6.72;;;;;;;16.97;88.24;94375.22;5075130;28;20196;-71
2022/06/11 03:20:06;;;;;;;8.25;7.55;;;;;;;16.98;88.12;94381.59;5074974;28;20205;-71
2022/06/11 03:22:35;;;;;;;7.45;6.85;;;;;;;16.98;88.41;94390.72;5075063;28;20204;-71
2022/06/11 03:25:01;;;;;;;7.65;6.97;;;;;;;16.98;88.47;94387.16;5074528;28;20236;-71
2022/06/11 03:27:28;;;;;;;8.45;7.57;;;;;;;17.00;88.45;94390.34;5074896;28;20201;-71
2022/06/11 03:29:55;;;;;;;8.10;7.40;;;;;;;16.99;88.62;94385.94;5074732;28;20193;-72
2022/06/11 03:32:22;;;;;;;9.27;8.48;;;;;;;17.01;88.87;94389.13;5075008;28;20185;-71
2022/06/11 03:34:49;;;;;;;9.80;8.80;;;;;;;17.00;88.82;94393.13;5074886;28;20185;-71
2022/06/11 03:37:16;;;;;;;20.55;18.75;;;;;;;17.00;88.90;94387.53;5074495;28;20204;-71
2022/06/11 03:39:44;;;;;;;35.63;32.28;;;;;;;17.00;89.19;94377.19;5074544;28;20190;-71
2022/06/11 03:42:11;;;;;;;33.28;30.20;;;;;;;17.01;89.16;94387.13;5073717;28;20289;-71
2022/06/11 03:44:38;;;;;;;34.70;31.50;;;;;;;17.03;89.30;94386.69;5073963;28;20211;-70
2022/06/11 03:47:05;;;;;;;36.30;32.85;;;;;;;17.05;89.20;94389.88;5073757;28;20213;-70
2022/06/11 03:49:32;;;;;;;37.55;33.92;;;;;;;17.04;89.23;94385.53;5074905;28;20192;-70
2022/06/11 03:51:58;;;;;;;30.15;27.40;;;;;;;17.06;89.50;94388.66;5074951;28;20190;-70
2022/06/11 03:54:25;;;;;;;17.92;16.25;;;;;;;17.07;89.52;94388.28;5073873;28;20212;-71
2022/06/11 03:56:53;;;;;;;13.10;11.95;;;;;;;17.09;89.72;94393.44;5073443;28;20189;-71
2022/06/11 03:59:21;;;;;;;11.45;10.50;;;;;;;17.10;89.99;94392.22;5074345;28;20193;-71
2022/06/11 04:01:48;;;;;;;10.70;9.73;;;;;;;17.13;90.01;94396.19;5074790;28;20185;-70
2022/06/11 04:04:18;;;;;;;9.50;8.70;;;;;;;17.17;90.08;94396.94;5073589;28;20203;-70
2022/06/11 04:06:47;;;;;;;10.02;9.15;;;;;;;17.19;89.67;94394.53;5074528;28;20205;-70
2022/06/11 04:09:17;;;;;;;9.63;8.82;;;;;;;17.21;89.62;94395.72;5074473;28;20204;-70
2022/06/11 04:11:44;;;;;;;9.57;8.70;;;;;;;17.23;89.62;94390.50;5074206;28;20193;-71
2022/06/11 04:14:12;;;;;;;9.88;8.98;;;;;;;17.24;89.27;94391.31;5074539;28;20178;-71
2022/06/11 04:16:42;;;;;;;9.55;8.75;;;;;;;17.25;89.44;94396.47;5076909;28;20173;-71
2022/06/11 04:19:14;;;;;;;9.40;8.55;;;;;;;17.27;89.35;94398.84;5077063;28;20201;-71
2022/06/11 04:21:42;;;;;;;9.75;8.80;;;;;;;17.30;89.18;94403.59;5077572;28;20530;-71
2022/06/11 04:24:08;;;;;;;9.48;8.57;;;;;;;17.31;88.88;94394.03;5076683;28;20247;-71
2022/06/11 04:26:38;;;;;;;8.07;7.38;;;;;;;17.30;88.44;94395.22;5077780;28;20208;-71
2022/06/11 04:29:06;;;;;;;7.75;7.05;;;;;;;17.30;87.82;94401.59;5077680;28;20197;-71
2022/06/11 04:31:35;;;;;;;7.72;7.03;;;;;;;17.29;87.77;94399.22;5077809;28;20192;-71
2022/06/11 04:34:03;;;;;;;8.63;7.85;;;;;;;17.29;87.88;94399.22;5077395;28;20199;-71
2022/06/11 04:36:31;;;;;;;8.95;8.15;;;;;;;17.28;88.10;94400.41;5077392;28;20192;-71
2022/06/11 04:38:58;;;;;;;8.75;7.95;;;;;;;17.29;88.08;94397.22;5076789;28;20605;-71
2022/06/11 04:41:26;;;;;;;9.73;8.82;;;;;;;17.31;88.35;94407.97;5077381;28;20186;-70
2022/06/11 04:43:54;;;;;;;9.18;8.32;;;;;;;17.31;88.79;94410.75;5077507;28;20211;-70
2022/06/11 04:46:21;;;;;;;9.07;8.23;;;;;;;17.32;88.67;94407.56;5077126;28;20671;-70
2022/06/11 04:48:49;;;;;;;9.80;8.93;;;;;;;17.32;88.38;94412.34;5077490;28;20185;-70
2022/06/11 04:51:16;;;;;;;9.15;8.35;;;;;;;17.32;88.35;94421.50;5077064;28;20193;-70
2022/06/11 04:53:44;;;;;;;9.85;8.95;;;;;;;17.35;88.08;94419.06;5077379;28;20181;-70
2022/06/11 04:56:13;;;;;;;11.77;10.68;;;;;;;17.32;88.26;94426.28;5076503;28;20208;-70
2022/06/11 04:58:40;;;;;;;34.65;31.40;;;;;;;17.32;87.78;94423.50;5076394;28;20246;-70
2022/06/11 05:01:07;;;;;;;43.55;39.65;;;;;;;17.29;87.68;94436.25;5076306;28;20197;-71
2022/06/11 05:03:34;;;;;;;45.83;41.80;;;;;;;17.28;87.93;94431.88;5076900;28;20201;-71
2022/06/11 05:06:02;;;;;;;46.00;41.88;;;;;;;17.28;88.18;94437.47;5075930;28;20225;-71
2022/06/11 05:08:29;;;;;;;45.38;41.42;;;;;;;17.27;88.37;94435.06;5076968;28;20302;-71
2022/06/11 05:10:56;;;;;;;39.65;36.25;;;;;;;17.25;88.59;94441.06;5076906;28;20197;-72
2022/06/11 05:13:23;;;;;;;33.05;30.30;;;;;;;17.24;88.39;94447.81;5076989;28;20188;-72
2022/06/11 05:15:52;;;;;;;27.45;25.05;;;;;;;17.22;88.71;94450.25;5076918;28;20193;-71
2022/06/11 05:18:20;;;;;;;20.70;18.80;;;;;;;17.21;89.00;94445.06;5075987;28;20193;-71
2022/06/11 05:20:47;;;;;;;11.25;10.25;;;;;;;17.19;88.79;94448.28;5077101;28;20192;-71
2022/06/11 05:23:16;;;;;;;11.13;10.02;;;;;;;17.18;88.84;94451.47;5076847;28;20197;-71
2022/06/11 05:25:44;;;;;;;9.80;8.88;;;;;;;17.20;88.73;94454.63;5076518;28;20189;-70
2022/06/11 05:28:15;;;;;;;6.97;6.30;;;;;;;17.19;88.13;94453.06;5075040;28;20232;-70
2022/06/11 05:30:42;;;;;;;5.72;5.20;;;;;;;17.19;87.92;94461.41;5075681;28;20197;-70
2022/06/11 05:33:10;;;;;;;5.95;5.35;;;;;;;17.19;87.73;94464.19;5075652;28;20254;-70
2022/06/11 05:35:37;;;;;;;6.85;6.25;;;;;;;17.19;87.74;94467.00;5076587;28;20185;-71
2022/06/11 05:38:06;;;;;;;6.00;5.50;;;;;;;17.21;87.50;94467.34;5076089;28;20200;-73
2022/06/11 05:40:38;;;;;;;5.13;4.72;;;;;;;17.19;87.11;94476.13;5075621;28;20204;-72
2022/06/11 05:43:05;;;;;;;5.80;5.30;;;;;;;17.20;87.11;94469.34;5075433;28;20292;-72
2022/06/11 05:45:35;;;;;;;5.53;5.03;;;;;;;17.18;87.47;94465.41;5075616;28;20204;-72
2022/06/11 05:48:03;;;;;;;5.70;5.22;;;;;;;17.17;87.05;94472.97;5075992;28;20687;-72
2022/06/11 05:50:33;;;;;;;5.78;5.28;;;;;;;17.21;87.75;94476.53;5076282;28;20182;-72
2022/06/11 05:53:01;;;;;;;6.32;5.72;;;;;;;17.24;87.87;94472.13;5075278;28;20197;-72
2022/06/11 05:55:32;;;;;;;6.47;5.82;;;;;;;17.27;88.11;94476.88;5076216;28;20189;-72
2022/06/11 05:58:02;;;;;;;7.47;6.78;;;;;;;17.27;88.34;94474.88;5076226;28;20181;-72
2022/06/11 06:00:30;;;;;;;6.60;6.00;;;;;;;17.30;88.09;94476.06;5076087;28;20185;-72
2022/06/11 06:02:57;;;;;;;5.88;5.38;;;;;;;17.31;88.00;94484.00;5075774;28;20196;-74
2022/06/11 06:05:27;;;;;;;6.15;5.65;;;;;;;17.33;88.45;94476.03;5075084;28;20197;-74
2022/06/11 06:07:54;;;;;;;6.25;5.75;;;;;;;17.36;88.21;94479.19;5075845;28;20629;-74
2022/06/11 06:10:21;;;;;;;5.95;5.45;;;;;;;17.38;88.26;94480.38;5075345;28;20262;-73
2022/06/11 06:12:48;;;;;;;5.70;5.18;;;;;;;17.39;88.05;94479.16;5075944;28;20185;-73
2022/06/11 06:15:20;;;;;;;6.05;5.55;;;;;;;17.37;87.74;94484.34;5074798;28;20196;-73
2022/06/11 06:17:49;;;;;;;6.03;5.53;;;;;;;17.39;87.97;94481.16;5075778;28;20189;-73
2022/06/11 06:20:17;;;;;;;5.53;5.03;;;;;;;17.40;87.68;94482.75;5075708;28;20200;-73
2022/06/11 06:22:44;;;;;;;5.85;5.43;;;;;;;17.39;87.97;94481.94;5075794;28;20197;-74
2022/06/11 06:25:13;;;;;;;6.15;5.60;;;;;;;17.38;87.62;94491.50;5074219;28;20240;-73
2022/06/11 06:27:40;;;;;;;5.78;5.28;;;;;;;17.37;87.63;94500.28;5075267;28;20209;-73
2022/06/11 06:30:08;;;;;;;5.75;5.35;;;;;;;17.36;87.75;94495.91;5075328;28;20185;-73
2022/06/11 06:32:36;;;;;;;5.93;5.43;;;;;;;17.35;87.42;94497.91;5074687;28;20200;-74
2022/06/11 06:35:03;;;;;;;6.53;5.93;;;;;;;17.36;87.23;94493.13;5075406;28;20186;-73
2022/06/11 06:37:31;;;;;;;5.80;5.38;;;;;;;17.35;87.37;94495.13;5074524;28;20606;-73
2022/06/11 06:39:58;;;;;;;6.40;5.88;;;;;;;17.34;87.77;94501.91;5074822;28;20225;-73
2022/06/11 06:42:25;;;;;;;6.93;6.25;;;;;;;17.35;87.85;94502.69;5074839;28;20538;-73
2022/06/11 06:44:51;;;;;;;7.55;6.30;;;;;;;17.37;88.22;94506.66;5074507;28;20207;-74
2022/06/11 06:47:18;;;;;;;6.93;6.32;;;;;;;17.38;88.03;94501.88;5075565;28;20213;-73
2022/06/11 06:49:46;;;;;;;6.90;6.30;;;;;;;17.40;88.25;94505.84;5075311;28;20184;-73
2022/06/11 06:52:13;;;;;;;8.05;7.25;;;;;;;17.39;88.29;94504.22;5075319;28;20208;-74
2022/06/11 06:54:40;;;;;;;17.52;15.88;;;;;;;17.40;88.18;94503.06;5074369;28;20193;-73
2022/06/11 06:57:07;;;;;;;16.08;14.02;;;;;;;17.41;88.35;94501.84;5074351;28;20185;-73
2022/06/11 06:59:34;;;;;;;11.93;10.82;;;;;;;17.40;88.12;94508.63;5074423;28;20197;-73
2022/06/11 07:02:01;;;;;;;9.05;8.15;;;;;;;17.42;88.34;94508.22;5074499;28;20189;-74
2022/06/11 07:04:28;;;;;;;8.57;7.78;;;;;;;17.43;88.12;94504.22;5074380;28;20204;-73
2022/06/11 07:06:56;;;;;;;8.70;7.93;;;;;;;17.43;88.30;94507.00;5074029;28;20213;-73
2022/06/11 07:09:23;;;;;;;7.88;7.07;;;;;;;17.44;88.07;94500.25;5075197;28;20190;-73
2022/06/11 07:11:51;;;;;;;7.75;7.05;;;;;;;17.46;87.88;94503.41;5074723;28;20201;-73
2022/06/11 07:14:17;;;;;;;7.75;6.95;;;;;;;17.48;87.37;94506.56;5075125;28;20199;-74
2022/06/11 07:16:48;;;;;;;8.90;6.60;;;;;;;17.51;87.72;94508.53;5075167;28;20185;-74
2022/06/11 07:19:18;;;;;;;7.05;6.35;;;;;;;17.56;87.37;94502.50;5074015;28;20193;-73
2022/06/11 07:21:49;;;;;;;7.00;6.40;;;;;;;17.61;87.13;94510.47;5075105;28;20185;-73
2022/06/11 07:24:19;;;;;;;7.90;7.18;;;;;;;17.66;87.23;94518.38;5073726;28;20648;-73
2022/06/11 07:26:49;;;;;;;6.72;6.13;;;;;;;17.71;87.21;94522.69;5074656;28;20193;-73
2022/06/11 07:29:19;;;;;;;6.97;6.38;;;;;;;17.78;87.07;94525.44;5074842;28;20189;-73
2022/06/11 07:31:46;;;;;;;6.43;5.93;;;;;;;17.84;86.75;94531.41;5075103;28;20202;-73
2022/06/11 07:34:14;;;;;;;7.00;5.95;;;;;;;17.86;86.82;94538.13;5074573;28;20616;-71
2022/06/11 07:36:41;;;;;;;6.50;5.90;;;;;;;17.90;86.82;94535.31;5074092;28;20189;-73
2022/06/11 07:39:08;;;;;;;6.57;5.97;;;;;;;17.91;86.52;94531.31;5074795;28;20193;-74
2022/06/11 07:41:36;;;;;;;7.38;6.65;;;;;;;17.96;86.59;94530.88;5074882;28;20193;-73
2022/06/11 07:44:03;;;;;;;6.30;5.72;;;;;;;18.02;86.87;94529.22;5075153;28;20190;-73
2022/06/11 07:46:31;;;;;;;5.70;5.20;;;;;;;18.07;86.04;94533.56;5074077;28;20193;-75
2022/06/11 07:48:57;;;;;;;5.47;4.88;;;;;;;18.06;86.01;94534.78;5074734;28;20205;-74
2022/06/11 07:51:24;;;;;;;5.00;4.63;;;;;;;18.06;85.10;94534.78;5076753;28;20193;-70
2022/06/11 07:53:52;;;;;;;5.28;4.88;;;;;;;18.04;84.81;94535.94;5077942;28;20307;-70
2022/06/11 07:56:20;;;;;;;6.00;4.82;;;;;;;18.05;84.58;94539.56;5077287;28;20208;-71
2022/06/11 07:58:49;;;;;;;5.25;4.75;;;;;;;18.09;85.11;94539.53;5077540;28;20189;-71
2022/06/11 08:01:16;;;;;;;11.45;5.43;;;;;;;18.21;84.84;94536.19;5077340;28;20197;-70
2022/06/11 08:03:43;;;;;;;5.18;4.53;;;;;;;18.27;83.46;94534.53;5077433;28;20189;-71
2022/06/11 08:06:10;;;;;;;6.45;4.80;;;;;;;18.31;83.60;94537.31;5077266;28;20216;-72
2022/06/11 08:08:37;;;;;;;4.85;4.45;;;;;;;18.37;83.49;94532.81;5077510;28;20651;-74
2022/06/11 08:11:06;;;;;;;5.53;4.63;;;;;;;18.39;82.79;94536.00;5076809;28;20203;-71
2022/06/11 08:13:33;;;;;;;5.40;4.95;;;;;;;18.48;83.06;94539.91;5078381;28;20197;-71
2022/06/11 08:16:02;;;;;;;5.47;4.30;;;;;;;18.56;81.88;94537.03;5078017;28;20196;-71
2022/06/11 08:18:30;;;;;;;5.57;4.72;;;;;;;18.66;82.33;94536.06;5077365;28;20204;-72
2022/06/11 08:20:57;;;;;;;5.43;4.10;;;;;;;18.74;82.06;94541.19;5077911;28;20181;-71
2022/06/11 08:23:24;;;;;;;8.77;5.25;;;;;;;18.82;82.32;94538.31;5077784;28;20225;-73
2022/06/11 08:25:52;;;;;;;14.95;5.97;;;;;;;18.89;82.06;94536.22;5077690;28;20189;-73
2022/06/11 08:28:19;;;;;;;5.10;4.60;;;;;;;18.98;82.30;94538.47;5077895;28;20201;-72
2022/06/11 08:30:46;;;;;;;7.93;4.60;;;;;;;18.98;79.29;94544.84;5076546;28;20201;-72
2022/06/11 08:33:15;;;;;;;5.30;4.40;;;;;;;18.97;79.16;94543.28;5076421;28;20196;-72
2022/06/11 08:35:42;;;;;;;6.22;5.15;;;;;;;18.99;79.62;94537.25;5076804;28;20201;-72
2022/06/11 08:38:08;;;;;;;5.32;4.93;;;;;;;19.07;80.64;94529.59;5077394;28;20536;-71
2022/06/11 08:40:38;;;;;;;5.10;4.60;;;;;;;19.16;80.21;94535.44;5076636;28;20200;-71
2022/06/11 08:43:17;;;;;;;6.43;5.38;;;;;;;19.22;79.71;94530.97;5076459;28;20609;-72
2022/06/11 08:45:46;;;;;;;4.60;4.30;;;;;;;19.30;78.26;94534.44;5077717;28;20188;-72
2022/06/11 08:48:23;;;;;;;5.93;4.13;;;;;;;19.24;76.50;94520.97;5077467;28;20213;-72
2022/06/11 08:50:59;;;;;;;4.93;4.28;;;;;;;19.26;77.77;94522.53;5077389;28;20185;-72
2022/06/11 08:53:26;;;;;;;4.70;4.30;;;;;;;19.35;78.05;94526.34;5077103;28;20189;-72
2022/06/11 08:55:53;;;;;;;4.30;3.97;;;;;;;19.37;77.04;94523.94;5076758;28;20230;-72
2022/06/11 08:58:28;;;;;;;4.43;4.03;;;;;;;19.46;76.92;94524.22;5076084;28;20213;-72
2022/06/11 09:00:59;;;;;;;5.40;5.00;;;;;;;19.45;78.13;94519.81;5077298;28;20197;-72
2022/06/11 09:03:37;;;;;;;4.68;4.30;;;;;;;19.45;78.51;94525.41;5076121;28;20225;-72
2022/06/11 09:06:41;;;;;;;4.97;4.53;;;;;;;19.45;79.07;94517.00;5077301;28;20189;-72
2022/06/11 09:09:12;;;;;;;4.72;4.32;;;;;;;19.52;78.39;94515.34;5063620;28;20233;-71
2022/06/11 09:11:53;;;;;;;4.85;4.35;;;;;;;19.71;77.69;94512.63;5077644;28;20189;-71
2022/06/11 09:15:01;;;;;;;6.97;4.55;;;;;;;19.92;74.11;94516.28;5076245;28;20204;-71
2022/06/11 09:17:49;;;;;;;4.88;4.47;;;;;;;20.10;73.68;94513.94;5018029;28;20544;-71
2022/06/11 09:20:25;;;;;;;4.72;4.30;;;;;;;20.17;73.15;94510.22;5076901;28;20185;-71
2022/06/11 09:23:17;;;;;;;4.60;4.30;;;;;;;20.25;70.67;94505.28;5076888;28;20233;-73
2022/06/11 09:25:54;;;;;;;6.15;4.53;;;;;;;20.20;73.20;94507.38;5076010;28;20526;-71
2022/06/11 09:28:28;;;;;;;8.93;4.95;;;;;;;20.07;72.22;94505.63;5075727;28;20220;-72
2022/06/11 09:31:00;;;;;;;4.35;3.97;;;;;;;19.97;73.11;94510.19;5075777;28;20193;-71
2022/06/11 09:33:30;;;;;;;4.72;4.32;;;;;;;19.99;74.28;94515.38;5076917;28;20540;-71
2022/06/11 09:36:02;;;;;;;5.25;4.75;;;;;;;20.02;73.97;94517.31;5076664;28;20185;-71
2022/06/11 09:38:35;;;;;;;4.93;4.53;;;;;;;20.12;73.27;94507.94;5076264;28;20213;-71
2022/06/11 09:41:11;;;;;;;5.55;4.13;;;;;;;20.19;71.81;94505.78;5075550;28;20280;-71
2022/06/11 09:43:42;;;;;;;4.38;3.78;;;;;;;20.37;70.10;94507.44;5075897;28;20196;-71
2022/06/11 09:46:16;;;;;;;4.70;4.30;;;;;;;20.41;71.62;94519.38;5075755;28;20193;-71
2022/06/11 09:48:56;;;;;;;4.53;4.10;;;;;;;20.34;72.12;94513.94;5075973;28;20271;-71
2022/06/11 09:51:29;;;;;;;4.03;3.70;;;;;;;20.33;72.09;94518.72;5076010;28;20192;-71
2022/06/11 09:54:06;;;;;;;3.60;3.30;;;;;;;20.33;69.79;94529.91;5076169;28;20192;-71
2022/06/11 09:56:38;;;;;;;3.47;3.28;;;;;;;20.33;69.68;94529.91;5075418;28;20208;-71
2022/06/11 09:59:27;;;;;;;3.63;3.33;;;;;;;20.33;70.18;94520.72;5075771;28;20185;-71
2022/06/11 10:01:57;;;;;;;3.58;3.28;;;;;;;20.28;69.75;94524.03;5074955;28;20186;-71
2022/06/11 10:04:28;;;;;;;3.72;3.35;;;;;;;20.33;70.81;94518.72;5075329;28;20208;-71
2022/06/11 10:06:57;;;;;;;4.72;4.32;;;;;;;20.43;69.96;94519.72;5075221;28;20296;-71
2022/06/11 10:09:27;;;;;;;4.05;3.65;;;;;;;20.54;69.23;94516.75;5075581;28;20200;-73
2022/06/11 10:11:57;;;;;;;3.95;3.53;;;;;;;20.60;70.00;94512.25;5075491;28;20212;-73
2022/06/11 10:14:30;;;;;;;4.65;4.22;;;;;;;20.65;69.14;94504.09;5075468;28;20300;-73
2022/06/11 10:17:02;;;;;;;5.63;5.22;;;;;;;20.64;69.03;94510.16;5074792;28;20201;-71
2022/06/11 10:19:34;;;;;;;5.30;4.80;;;;;;;20.52;70.33;94510.81;5074962;28;20253;-71
2022/06/11 10:22:06;;;;;;;4.90;4.10;;;;;;;20.35;71.05;94510.69;5075617;28;20188;-71
2022/06/11 10:24:35;;;;;;;4.70;4.30;;;;;;;20.24;70.96;94514.91;5075512;28;20240;-72
2022/06/11 10:27:06;;;;;;;5.00;4.50;;;;;;;20.20;70.78;94517.78;5075239;28;20193;-71
2022/06/11 10:29:37;;;;;;;5.00;4.57;;;;;;;20.12;72.24;94519.13;5074584;28;20216;-71
2022/06/11 10:32:09;;;;;;;4.68;4.20;;;;;;;20.05;72.53;94536.06;5075523;28;20204;-72
2022/06/11 10:34:37;;;;;;;4.85;4.10;;;;;;;19.99;73.41;94541.34;5074584;28;20201;-72
2022/06/11 10:37:09;;;;;;;4.15;3.85;;;;;;;20.03;72.27;94556.06;5074491;28;20200;-72
2022/06/11 10:39:40;;;;;;;7.43;3.72;;;;;;;19.95;75.09;94571.41;5075113;28;20496;-72
2022/06/11 10:42:11;;;;;;;7.60;3.45;;;;;;;19.62;76.31;94556.34;5075544;28;20181;-72
2022/06/11 10:44:40;;;;;;;4.80;3.58;;;;;;;19.31;77.85;94553.59;5075099;28;20193;-73
2022/06/11 10:47:17;;;;;;;4.90;3.33;;;;;;;19.06;78.63;94562.31;5075020;28;20197;-73
2022/06/11 10:49:45;;;;;;;3.10;2.90;;;;;;;18.92;79.74;94574.50;5075207;28;20216;-73
2022/06/11 10:52:20;;;;;;;3.53;3.22;;;;;;;18.84;80.66;94575.78;5075005;28;20177;-73
2022/06/11 10:54:47;;;;;;;3.20;2.90;;;;;;;18.80;81.73;94577.03;5074482;28;20196;-72
2022/06/11 10:57:21;;;;;;;3.85;3.55;;;;;;;18.76;82.41;94585.47;5074298;28;20204;-72
2022/06/11 10:59:51;;;;;;;4.28;3.88;;;;;;;18.76;83.70;94583.47;5075256;28;20185;-72
2022/06/11 11:02:24;;;;;;;4.05;3.65;;;;;;;18.77;84.61;94581.44;5074988;28;20182;-74
2022/06/11 11:04:57;;;;;;;3.85;3.53;;;;;;;18.81;85.09;94581.41;5074322;28;20208;-73
2022/06/11 11:07:26;;;;;;;4.95;4.35;;;;;;;18.83;85.50;94579.78;5074838;28;20200;-73
2022/06/11 11:09:58;;;;;;;5.10;3.67;;;;;;;18.84;85.62;94589.75;5075003;28;20208;-74
2022/06/11 11:12:28;;;;;;;4.65;3.33;;;;;;;18.88;85.95;94581.31;5075171;28;20189;-74
2022/06/11 11:15:11;;;;;;;4.22;3.20;;;;;;;18.85;84.37;94584.97;5074698;28;20606;-73
2022/06/11 11:17:45;;;;;;;4.43;3.15;;;;;;;18.84;84.31;94577.78;5074752;28;20589;-73
2022/06/11 11:20:30;;;;;;;3.90;3.55;;;;;;;18.85;84.52;94573.81;5075112;28;20180;-73
2022/06/11 11:23:03;;;;;;;4.57;3.58;;;;;;;18.84;83.97;94575.00;5074218;28;20196;-72
2022/06/11 11:25:35;;;;;;;3.92;3.40;;;;;;;18.87;84.35;94574.16;5075668;28;20521;-73
2022/06/11 11:28:02;;;;;;;3.72;3.33;;;;;;;18.88;85.00;94581.31;5077851;28;20201;-72
2022/06/11 11:30:33;;;;;;;3.70;3.40;;;;;;;18.86;84.79;94572.59;5079016;28;20196;-73
2022/06/11 11:33:22;;;;;;;4.13;3.78;;;;;;;18.84;84.48;94572.97;5077968;28;20223;-73
2022/06/11 11:35:49;;;;;;;4.28;3.80;;;;;;;18.81;83.69;94573.03;5078112;28;20201;-73
2022/06/11 11:38:22;;;;;;;4.93;4.40;;;;;;;18.79;84.41;94569.88;5077993;28;20498;-73
2022/06/11 11:40:53;;;;;;;5.25;4.38;;;;;;;18.79;85.31;94567.88;5078787;28;20189;-73
2022/06/11 11:43:21;;;;;;;4.93;4.30;;;;;;;18.80;85.12;94563.06;5077449;28;20617;-73
2022/06/11 11:45:49;;;;;;;6.00;4.10;;;;;;;18.79;85.16;94565.06;5078658;28;20193;-73